Time;durP1;ratioP1;P1;durP2;ratioP2;P2;SDS_P1;SDS_P2;PMS_P1;PMS_P2;Temp;Humidity;BMP_temperature;BMP_pressure;BME280_temperature;BME280_humidity;BME280_pressure;Samples;Min_cycle;Max_cycle;Signal;HPM_P1;HPM_P2
2022/10/09 00:01:09;;;;;;;9.88;4.25;;;;;;;12.42;51.92;102436.25;5053190;28;20045;-68
2022/10/09 00:03:37;;;;;;;9.13;4.50;;;;;;;12.47;51.97;102436.88;5053085;28;20041;-69
2022/10/09 00:06:06;;;;;;;10.35;4.65;;;;;;;12.51;51.97;102438.44;5051600;28;20457;-69
2022/10/09 00:08:34;;;;;;;7.95;4.72;;;;;;;12.53;52.02;102433.84;5053326;28;20045;-68
2022/10/09 00:11:13;;;;;;;13.70;4.78;;;;;;;12.52;51.85;102440.19;5053088;28;20487;-69
2022/10/09 00:13:39;;;;;;;8.73;4.18;;;;;;;12.51;51.89;102432.19;5052824;28;20384;-68
2022/10/09 00:16:11;;;;;;;9.95;4.93;;;;;;;12.47;51.92;102430.59;5053041;28;20564;-68
2022/10/09 00:18:39;;;;;;;6.85;4.10;;;;;;;12.44;51.91;102433.47;5033076;28;20049;-69
2022/10/09 00:21:23;;;;;;;11.15;3.47;;;;;;;12.39;52.04;102439.97;5033012;28;20041;-68
2022/10/09 00:23:56;;;;;;;7.85;4.05;;;;;;;12.32;52.01;102440.38;5032485;28;20050;-69
2022/10/09 00:26:23;;;;;;;3.90;2.40;;;;;;;12.26;51.75;102436.19;5035028;28;20111;-68
2022/10/09 00:28:50;;;;;;;2.55;1.90;;;;;;;12.22;52.07;102439.13;5052816;28;20033;-68
2022/10/09 00:31:17;;;;;;;4.97;3.20;;;;;;;12.15;51.87;102433.19;5052810;28;20107;-68
2022/10/09 00:33:50;;;;;;;4.05;2.70;;;;;;;12.08;52.31;102438.03;5052526;28;20037;-69
2022/10/09 00:36:19;;;;;;;4.63;3.35;;;;;;;12.03;52.13;102428.44;5053009;28;20403;-68
2022/10/09 00:38:46;;;;;;;6.53;3.85;;;;;;;12.00;52.37;102440.25;5051669;28;20045;-68
2022/10/09 00:41:16;;;;;;;6.25;3.45;;;;;;;11.98;52.28;102438.59;5052618;28;20653;-67
2022/10/09 00:44:01;;;;;;;7.13;3.72;;;;;;;11.95;52.31;102439.63;5052401;28;20111;-68
2022/10/09 00:46:50;;;;;;;7.97;3.40;;;;;;;11.93;52.19;102440.66;5052547;28;20115;-68
2022/10/09 00:49:32;;;;;;;6.30;3.53;;;;;;;11.88;52.22;102429.22;5052727;28;20045;-67
2022/10/09 00:52:02;;;;;;;5.80;3.92;;;;;;;11.82;52.24;102441.16;5052521;28;20116;-68
2022/10/09 00:54:38;;;;;;;6.93;3.45;;;;;;;11.78;52.46;102437.75;5052868;28;20086;-68
2022/10/09 00:57:05;;;;;;;7.03;3.53;;;;;;;11.75;52.46;102434.31;5052589;28;20102;-68
2022/10/09 00:59:32;;;;;;;5.57;3.40;;;;;;;11.74;52.39;102429.88;5052695;28;20071;-68
2022/10/09 01:01:59;;;;;;;5.90;2.50;;;;;;;11.72;52.67;102434.47;5052431;28;20458;-67
2022/10/09 01:04:26;;;;;;;4.80;3.00;;;;;;;11.68;52.75;102441.81;5051460;28;20395;-67
2022/10/09 01:07:17;;;;;;;4.63;3.38;;;;;;;11.67;52.67;102437.38;5053089;28;20049;-68
2022/10/09 01:09:53;;;;;;;6.15;3.25;;;;;;;11.65;52.89;102441.09;5052872;28;20048;-68
2022/10/09 01:12:52;;;;;;;6.28;3.03;;;;;;;11.63;52.77;102433.13;5052725;28;20040;-67
2022/10/09 01:15:20;;;;;;;7.25;3.47;;;;;;;11.66;52.77;102429.41;5051668;28;20103;-68
2022/10/09 01:18:05;;;;;;;7.50;3.22;;;;;;;11.68;52.76;102436.44;5051656;28;20045;-68
2022/10/09 01:20:55;;;;;;;6.43;3.67;;;;;;;11.73;52.90;102426.31;5051260;28;20045;-68
2022/10/09 01:24:16;;;;;;;6.75;3.50;;;;;;;11.76;52.68;102428.84;5027776;28;20099;-68
2022/10/09 01:26:59;;;;;;;5.82;3.58;;;;;;;11.78;52.60;102418.03;5009419;28;20049;-68
2022/10/09 01:29:31;;;;;;;6.25;3.65;;;;;;;11.76;52.70;102417.22;5029499;28;20566;-68
2022/10/09 01:32:00;;;;;;;9.10;4.30;;;;;;;11.75;52.59;102421.72;5042018;28;20099;-68
2022/10/09 01:34:51;;;;;;;8.15;4.00;;;;;;;11.74;52.58;102421.81;5051382;28;20098;-69
2022/10/09 01:37:20;;;;;;;8.05;3.60;;;;;;;11.71;52.51;102417.44;5051338;28;20060;-68
2022/10/09 01:39:48;;;;;;;7.85;3.55;;;;;;;11.66;52.68;102410.56;5051076;28;20044;-69
2022/10/09 01:42:17;;;;;;;4.75;3.35;;;;;;;11.63;52.61;102403.50;5051035;28;20037;-68
2022/10/09 01:44:44;;;;;;;5.95;3.67;;;;;;;11.60;52.67;102409.06;5051150;28;20107;-68
2022/10/09 01:47:16;;;;;;;6.13;2.97;;;;;;;11.57;52.89;102408.34;5051410;28;20045;-68
2022/10/09 01:49:49;;;;;;;5.43;3.15;;;;;;;11.55;52.58;102405.72;5051646;28;20094;-68
2022/10/09 01:52:33;;;;;;;7.07;3.35;;;;;;;11.54;52.80;102414.75;5051277;28;20380;-68
2022/10/09 01:55:17;;;;;;;4.28;3.13;;;;;;;11.55;52.79;102404.84;5050839;28;20057;-68
2022/10/09 01:57:51;;;;;;;6.50;3.53;;;;;;;11.55;52.93;102404.84;5051865;28;20450;-67
2022/10/09 02:00:18;;;;;;;8.10;3.38;;;;;;;11.57;52.66;102400.25;5051558;28;20049;-68
2022/10/09 02:02:47;;;;;;;6.30;3.60;;;;;;;11.57;52.66;102392.19;5051206;28;20045;-68
2022/10/09 02:05:20;;;;;;;6.00;3.40;;;;;;;11.57;52.76;102397.56;5051268;28;20041;-68
2022/10/09 02:07:46;;;;;;;7.32;3.90;;;;;;;11.54;52.43;102392.34;5050243;28;20302;-67
2022/10/09 02:10:15;;;;;;;7.20;3.58;;;;;;;11.51;52.44;102392.50;5051386;28;20450;-68
2022/10/09 02:12:52;;;;;;;6.72;3.80;;;;;;;11.44;52.46;102390.13;5051270;28;20041;-68
2022/10/09 02:15:21;;;;;;;11.00;4.03;;;;;;;11.40;52.58;102384.97;5051627;28;20041;-68
2022/10/09 02:17:52;;;;;;;9.27;4.38;;;;;;;11.34;52.46;102383.47;5051370;28;20041;-68
2022/10/09 02:20:29;;;;;;;6.47;3.70;;;;;;;11.30;52.64;102378.31;5051470;28;20041;-68
2022/10/09 02:22:57;;;;;;;5.95;3.35;;;;;;;11.26;52.40;102380.28;5050133;28;20041;-68
2022/10/09 02:25:28;;;;;;;5.45;3.38;;;;;;;11.21;52.93;102376.94;5051617;28;20491;-69
2022/10/09 02:27:55;;;;;;;6.57;3.70;;;;;;;11.17;52.79;102379.88;5051387;28;20130;-68
2022/10/09 02:30:25;;;;;;;5.50;3.20;;;;;;;11.13;52.75;102379.97;5050712;28;20044;-68
2022/10/09 02:32:53;;;;;;;7.82;3.88;;;;;;;11.11;52.81;102381.00;5050821;28;20045;-68
2022/10/09 02:35:23;;;;;;;7.25;3.30;;;;;;;11.08;52.70;102375.78;5051065;28;20044;-68
2022/10/09 02:37:50;;;;;;;5.90;3.72;;;;;;;11.06;52.71;102380.34;5050962;28;20368;-67
2022/10/09 02:40:16;;;;;;;5.85;3.50;;;;;;;11.07;52.78;102382.09;5050971;28;20099;-68
2022/10/09 02:42:43;;;;;;;5.93;3.45;;;;;;;11.04;52.77;102380.44;5050898;28;20384;-68
2022/10/09 02:45:13;;;;;;;7.35;3.72;;;;;;;11.03;52.82;102376.00;5051033;28;20103;-68
2022/10/09 02:47:40;;;;;;;6.40;4.07;;;;;;;11.03;53.05;102381.38;5053631;28;20487;-68
2022/10/09 02:50:07;;;;;;;6.57;4.05;;;;;;;11.02;52.83;102376.06;5054794;28;20057;-69
2022/10/09 02:52:33;;;;;;;8.32;3.50;;;;;;;10.99;52.88;102370.84;5054473;28;20091;-69
2022/10/09 02:55:00;;;;;;;10.18;3.75;;;;;;;10.99;52.71;102370.84;5054643;28;20041;-68
2022/10/09 02:57:26;;;;;;;7.63;4.30;;;;;;;10.98;52.93;102372.66;5054186;28;20483;-68
2022/10/09 02:59:53;;;;;;;4.35;3.50;;;;;;;10.98;52.63;102372.66;5056266;28;20372;-69
2022/10/09 03:02:19;;;;;;;7.22;4.30;;;;;;;10.96;52.84;102368.31;5054203;28;20098;-68
2022/10/09 03:04:48;;;;;;;7.35;3.30;;;;;;;10.95;52.77;102372.81;5053391;28;20132;-68
2022/10/09 03:07:14;;;;;;;6.85;3.78;;;;;;;10.95;52.98;102366.56;5054089;28;20053;-68
2022/10/09 03:09:41;;;;;;;5.65;3.53;;;;;;;10.95;52.84;102362.06;5034452;28;20467;-68
2022/10/09 03:12:08;;;;;;;8.88;4.07;;;;;;;10.98;52.98;102374.47;5034261;28;20111;-68
2022/10/09 03:14:36;;;;;;;8.50;4.18;;;;;;;10.97;52.80;102367.38;5034499;28;20042;-68
2022/10/09 03:17:02;;;;;;;9.40;3.90;;;;;;;10.96;52.92;102365.63;5035495;28;20046;-68
2022/10/09 03:19:29;;;;;;;5.78;3.55;;;;;;;10.93;52.96;102371.16;5054345;28;20045;-68
2022/10/09 03:21:55;;;;;;;7.00;3.83;;;;;;;10.90;52.92;102366.78;5054180;28;20568;-68
2022/10/09 03:24:26;;;;;;;5.82;3.45;;;;;;;10.86;52.79;102367.00;5054403;28;20063;-68
2022/10/09 03:26:53;;;;;;;6.20;3.90;;;;;;;10.81;52.62;102362.72;5054075;28;20430;-68
2022/10/09 03:29:19;;;;;;;4.28;3.33;;;;;;;10.78;52.77;102357.50;5054431;28;20044;-68
2022/10/09 03:31:46;;;;;;;10.02;3.67;;;;;;;10.76;52.80;102354.00;5053871;28;20057;-68
2022/10/09 03:34:22;;;;;;;6.05;3.35;;;;;;;10.75;52.77;102354.97;5054347;28;20073;-68
2022/10/09 03:36:49;;;;;;;3.88;3.03;;;;;;;10.73;52.60;102358.66;5053669;28;20404;-68
2022/10/09 03:39:15;;;;;;;8.07;3.50;;;;;;;10.72;52.58;102356.91;5054366;28;20048;-67
2022/10/09 03:41:42;;;;;;;4.68;3.20;;;;;;;10.70;52.53;102346.25;5054059;28;20038;-67
2022/10/09 03:44:11;;;;;;;8.20;3.67;;;;;;;10.69;52.71;102354.38;5053002;28;20045;-68
2022/10/09 03:46:38;;;;;;;6.20;4.15;;;;;;;10.65;52.55;102353.66;5053896;28;20072;-69
2022/10/09 03:49:04;;;;;;;7.22;4.32;;;;;;;10.61;52.42;102352.06;5054237;28;20102;-68
2022/10/09 03:51:31;;;;;;;5.85;3.67;;;;;;;10.56;52.42;102354.09;5054286;28;20487;-68
2022/10/09 03:53:59;;;;;;;5.20;3.60;;;;;;;10.52;52.45;102363.22;5053990;28;20037;-68
2022/10/09 03:56:25;;;;;;;5.13;3.45;;;;;;;10.47;52.57;102351.84;5054244;28;20049;-68
2022/10/09 03:58:52;;;;;;;7.50;4.47;;;;;;;10.43;52.76;102351.09;5053356;28;20037;-68
2022/10/09 04:01:18;;;;;;;9.27;3.78;;;;;;;10.43;52.55;102355.59;5054144;28;20120;-68
2022/10/09 04:03:47;;;;;;;6.25;3.53;;;;;;;10.42;52.62;102357.41;5051719;28;20073;-69
2022/10/09 04:06:13;;;;;;;7.28;3.60;;;;;;;10.44;52.52;102365.41;5033376;28;20041;-68
2022/10/09 04:08:40;;;;;;;7.05;3.83;;;;;;;10.42;52.47;102356.56;5033655;28;20072;-69
2022/10/09 04:11:06;;;;;;;6.82;3.35;;;;;;;10.40;52.62;102364.69;5033257;28;20042;-68
2022/10/09 04:13:33;;;;;;;7.60;3.67;;;;;;;10.40;52.69;102355.72;5033128;28;20508;-68
2022/10/09 04:16:01;;;;;;;6.97;3.63;;;;;;;10.39;52.71;102354.84;5051483;28;20114;-69
2022/10/09 04:18:27;;;;;;;8.63;3.88;;;;;;;10.39;52.54;102368.28;5053079;28;20075;-68
2022/10/09 04:20:55;;;;;;;5.75;4.07;;;;;;;10.40;52.49;102359.31;5053194;28;20045;-68
2022/10/09 04:23:24;;;;;;;7.97;3.92;;;;;;;10.39;52.68;102352.16;5053134;28;20045;-68
2022/10/09 04:25:53;;;;;;;7.18;3.85;;;;;;;10.35;52.56;102355.06;5052698;28;20079;-68
2022/10/09 04:28:22;;;;;;;5.63;3.85;;;;;;;10.31;52.71;102361.50;5053024;28;20098;-68
2022/10/09 04:30:48;;;;;;;6.95;4.25;;;;;;;10.26;52.68;102353.66;5052783;28;20048;-68
2022/10/09 04:33:15;;;;;;;5.80;3.88;;;;;;;10.23;52.59;102356.50;5052152;28;20040;-68
2022/10/09 04:35:45;;;;;;;6.82;4.20;;;;;;;10.18;52.69;102353.97;5052439;28;20053;-68
2022/10/09 04:38:12;;;;;;;7.07;3.63;;;;;;;10.15;52.74;102355.94;5052835;28;20041;-68
2022/10/09 04:40:38;;;;;;;7.63;4.30;;;;;;;10.11;52.70;102357.88;5052757;28;20372;-69
2022/10/09 04:43:05;;;;;;;7.18;4.13;;;;;;;10.10;52.84;102366.00;5051265;28;20037;-68
2022/10/09 04:45:31;;;;;;;7.57;4.40;;;;;;;10.09;52.98;102354.41;5052294;28;20052;-68
2022/10/09 04:47:58;;;;;;;7.03;4.28;;;;;;;10.09;52.77;102348.16;5051579;28;20506;-69
2022/10/09 04:50:24;;;;;;;7.30;4.25;;;;;;;10.11;52.92;102354.34;5052575;28;20040;-69
2022/10/09 04:52:57;;;;;;;6.82;4.20;;;;;;;10.10;52.83;102350.78;5052400;28;20400;-69
2022/10/09 04:55:24;;;;;;;6.47;3.88;;;;;;;10.12;53.04;102348.91;5052175;28;20045;-68
2022/10/09 04:57:51;;;;;;;7.60;4.20;;;;;;;10.14;53.04;102348.81;5052475;28;20453;-68
2022/10/09 05:00:18;;;;;;;6.93;3.75;;;;;;;10.15;52.97;102348.75;5052474;28;20045;-68
2022/10/09 05:02:44;;;;;;;6.72;4.30;;;;;;;10.16;52.85;102353.19;5052376;28;20114;-68
2022/10/09 05:05:13;;;;;;;5.50;3.33;;;;;;;10.16;52.82;102346.94;5052458;28;20334;-68
2022/10/09 05:07:39;;;;;;;4.88;3.33;;;;;;;10.16;52.78;102344.25;5052250;28;20045;-68
2022/10/09 05:10:06;;;;;;;4.70;3.97;;;;;;;10.14;52.67;102346.13;5051772;28;20086;-69
2022/10/09 05:12:33;;;;;;;6.95;4.15;;;;;;;10.14;52.78;102346.13;5052067;28;20499;-68
2022/10/09 05:14:59;;;;;;;5.47;3.75;;;;;;;10.13;52.75;102337.22;5051905;28;20513;-67
2022/10/09 05:17:26;;;;;;;10.20;4.30;;;;;;;10.13;52.67;102339.03;5052098;28;20036;-68
2022/10/09 05:19:53;;;;;;;8.50;4.20;;;;;;;10.11;52.61;102336.41;5052085;28;20044;-68
2022/10/09 05:22:19;;;;;;;5.40;4.22;;;;;;;10.11;52.71;102341.78;5051740;28;20041;-68
2022/10/09 05:24:50;;;;;;;5.25;4.03;;;;;;;10.09;52.57;102332.94;5052009;28;20130;-67
2022/10/09 05:27:17;;;;;;;6.15;3.78;;;;;;;10.09;52.57;102332.94;5051879;28;20063;-68
2022/10/09 05:29:43;;;;;;;5.20;3.90;;;;;;;10.07;52.70;102331.25;5052276;28;20064;-68
2022/10/09 05:32:10;;;;;;;6.93;4.15;;;;;;;10.05;52.48;102334.00;5051921;28;20056;-68
2022/10/09 05:34:39;;;;;;;5.07;3.97;;;;;;;10.05;52.62;102342.06;5052252;28;20407;-68
2022/10/09 05:37:06;;;;;;;10.10;4.63;;;;;;;10.04;52.72;102348.38;5052260;28;20041;-68
2022/10/09 05:39:34;;;;;;;6.60;4.18;;;;;;;10.02;52.69;102344.88;5052015;28;20565;-69
2022/10/09 05:42:01;;;;;;;8.40;4.40;;;;;;;10.01;52.70;102344.94;5051486;28;20491;-68
2022/10/09 05:44:32;;;;;;;8.15;3.70;;;;;;;9.99;52.70;102350.38;5051750;28;20049;-68
2022/10/09 05:46:58;;;;;;;5.55;4.47;;;;;;;9.98;52.65;102340.59;5051689;28;20115;-68
2022/10/09 05:49:25;;;;;;;7.10;4.30;;;;;;;9.97;52.69;102341.53;5051610;28;20044;-69
2022/10/09 05:51:53;;;;;;;7.50;4.60;;;;;;;9.95;52.60;102340.72;5051345;28;20098;-69
2022/10/09 05:54:20;;;;;;;7.65;4.57;;;;;;;9.94;52.77;102328.25;5051623;28;20037;-68
2022/10/09 05:56:46;;;;;;;6.93;4.45;;;;;;;9.92;52.82;102338.19;5052009;28;20045;-69
2022/10/09 05:59:18;;;;;;;4.30;3.90;;;;;;;9.90;52.79;102336.50;5048976;28;20041;-69
2022/10/09 06:01:47;;;;;;;8.98;4.65;;;;;;;9.88;52.89;102331.22;5050066;28;20045;-68
2022/10/09 06:04:20;;;;;;;5.90;4.82;;;;;;;9.87;52.89;102330.34;5050635;28;20037;-68
2022/10/09 06:06:47;;;;;;;7.32;5.13;;;;;;;9.87;52.83;102332.16;5051788;28;20049;-68
2022/10/09 06:09:24;;;;;;;8.30;4.93;;;;;;;9.85;52.92;102334.03;5051675;28;20036;-69
2022/10/09 06:11:53;;;;;;;6.47;4.55;;;;;;;9.85;52.82;102331.34;5051085;28;20045;-68
2022/10/09 06:14:23;;;;;;;6.50;4.75;;;;;;;9.84;52.88;102333.16;5052003;28;20063;-68
2022/10/09 06:16:50;;;;;;;8.07;5.43;;;;;;;9.83;52.94;102333.22;5051540;28;20482;-68
2022/10/09 06:19:18;;;;;;;6.90;4.85;;;;;;;9.83;53.12;102336.78;5051656;28;20040;-67
2022/10/09 06:21:46;;;;;;;7.40;5.05;;;;;;;9.84;52.78;102338.53;5052719;28;20388;-70
2022/10/09 06:24:19;;;;;;;10.60;5.00;;;;;;;9.86;52.98;102331.28;5056014;28;20091;-70
2022/10/09 06:26:52;;;;;;;7.97;5.38;;;;;;;9.87;53.23;102337.50;5035793;28;20060;-69
2022/10/09 06:29:19;;;;;;;8.70;5.45;;;;;;;9.89;53.22;102335.63;5046662;28;20475;-69
2022/10/09 06:31:45;;;;;;;6.80;4.97;;;;;;;9.92;53.27;102340.00;5056087;28;20466;-69
2022/10/09 06:34:15;;;;;;;7.50;5.32;;;;;;;9.96;53.40;102338.91;5056092;28;20040;-70
2022/10/09 06:36:43;;;;;;;9.38;5.68;;;;;;;9.95;53.30;102342.53;5055813;28;20033;-69
2022/10/09 06:39:09;;;;;;;10.75;5.53;;;;;;;9.92;53.61;102340.88;5055865;28;20029;-69
2022/10/09 06:41:36;;;;;;;9.35;5.38;;;;;;;9.89;53.38;102341.00;5055466;28;20453;-69
2022/10/09 06:44:23;;;;;;;8.07;5.25;;;;;;;9.86;53.42;102339.31;5054920;28;20515;-68
2022/10/09 06:46:49;;;;;;;8.73;5.22;;;;;;;9.84;53.48;102343.88;5055921;28;20053;-68
2022/10/09 06:49:16;;;;;;;9.13;5.85;;;;;;;9.82;53.54;102339.53;5055627;28;20098;-68
2022/10/09 06:51:42;;;;;;;8.68;5.20;;;;;;;9.81;53.71;102343.16;5055258;28;20496;-69
2022/10/09 06:54:13;;;;;;;9.63;7.00;;;;;;;9.79;53.70;102345.03;5055642;28;20041;-68
2022/10/09 06:56:40;;;;;;;9.18;5.93;;;;;;;9.81;53.85;102348.53;5055469;28;20048;-68
2022/10/09 06:59:09;;;;;;;16.88;7.65;;;;;;;9.85;53.94;102345.63;5054860;28;20099;-69
2022/10/09 07:01:35;;;;;;;7.30;5.80;;;;;;;9.91;54.17;102349.84;5055460;28;20067;-69
2022/10/09 07:04:06;;;;;;;9.00;6.25;;;;;;;9.99;54.55;102347.69;5054946;28;20041;-67
2022/10/09 07:06:36;;;;;;;8.77;5.93;;;;;;;10.14;54.56;102346.13;5053239;28;20045;-68
2022/10/09 07:09:06;;;;;;;9.60;5.78;;;;;;;10.30;54.83;102349.03;5055158;28;20087;-67
2022/10/09 07:11:41;;;;;;;7.38;5.50;;;;;;;10.45;54.89;102346.53;5054189;28;20372;-67
2022/10/09 07:14:12;;;;;;;9.63;6.03;;;;;;;10.65;54.73;102344.72;5054314;28;20079;-67
2022/10/09 07:16:43;;;;;;;9.40;6.28;;;;;;;10.87;55.05;102341.88;5053896;28;20064;-67
2022/10/09 07:19:11;;;;;;;9.70;5.72;;;;;;;11.11;55.17;102346.03;5052639;28;20107;-68
2022/10/09 07:21:40;;;;;;;12.88;5.43;;;;;;;11.39;55.20;102345.56;5053328;28;20048;-67
2022/10/09 07:24:11;;;;;;;11.05;5.38;;;;;;;11.68;55.44;102342.25;5054087;28;20037;-68
2022/10/09 07:26:41;;;;;;;9.05;5.30;;;;;;;11.98;55.21;102339.84;5053800;28;20041;-68
2022/10/09 07:29:10;;;;;;;13.40;6.30;;;;;;;12.28;55.02;102342.69;5053924;28;20482;-67
2022/10/09 07:31:37;;;;;;;7.57;5.70;;;;;;;12.53;54.95;102342.22;5053424;28;20061;-68
2022/10/09 07:34:08;;;;;;;10.18;5.90;;;;;;;12.75;55.03;102349.13;5050936;28;20045;-68
2022/10/09 07:36:35;;;;;;;9.52;5.28;;;;;;;12.91;54.98;102345.47;5052398;28;20114;-68
2022/10/09 07:39:03;;;;;;;10.88;5.72;;;;;;;13.06;54.42;102335.63;5051669;28;20044;-69
2022/10/09 07:41:30;;;;;;;7.72;5.78;;;;;;;13.19;54.52;102334.00;5053224;28;20438;-69
2022/10/09 07:43:58;;;;;;;15.55;5.38;;;;;;;13.34;54.26;102340.31;5053842;28;20500;-69
2022/10/09 07:46:26;;;;;;;9.25;5.93;;;;;;;13.43;54.17;102334.41;5051663;28;20584;-69
2022/10/09 07:48:58;;;;;;;10.27;6.03;;;;;;;13.52;54.06;102338.38;5053501;28;20491;-68
2022/10/09 07:51:27;;;;;;;8.13;5.75;;;;;;;13.59;53.84;102337.06;5053482;28;20352;-69
2022/10/09 07:53:56;;;;;;;8.80;5.75;;;;;;;13.67;53.87;102332.06;5052351;28;20033;-70
2022/10/09 07:56:31;;;;;;;7.68;5.50;;;;;;;13.75;54.35;102337.88;5053411;28;20124;-69
2022/10/09 07:59:00;;;;;;;12.30;5.82;;;;;;;13.90;54.34;102339.63;5053034;28;20037;-69
2022/10/09 08:01:28;;;;;;;10.77;5.90;;;;;;;14.09;54.53;102341.19;5052057;28;20549;-68
2022/10/09 08:04:00;;;;;;;9.48;5.93;;;;;;;14.31;54.39;102338.94;5053319;28;20049;-69
2022/10/09 08:06:27;;;;;;;7.00;4.93;;;;;;;14.50;54.45;102333.25;5052289;28;20056;-69
2022/10/09 08:08:55;;;;;;;7.32;5.05;;;;;;;14.69;53.92;102341.03;5052907;28;20045;-69
2022/10/09 08:11:24;;;;;;;15.45;5.65;;;;;;;14.88;54.06;102336.22;5053198;28;20045;-69
2022/10/09 08:13:55;;;;;;;10.68;5.63;;;;;;;15.07;54.13;102335.84;5053106;28;20029;-69
2022/10/09 08:16:23;;;;;;;10.48;5.30;;;;;;;15.22;53.93;102330.28;5052445;28;20055;-69
2022/10/09 08:18:54;;;;;;;9.60;5.63;;;;;;;15.44;53.73;102323.44;5053181;28;20041;-68
2022/10/09 08:21:20;;;;;;;8.43;5.63;;;;;;;15.65;53.73;102322.03;5052605;28;20045;-68
2022/10/09 08:26:34;;;;;;;9.18;6.25;;;;;;;15.92;53.53;102315.66;5050717;28;20033;-67
2022/10/09 08:29:03;;;;;;;13.43;6.03;;;;;;;16.04;53.10;102309.38;5052581;28;20049;-68
2022/10/09 08:31:31;;;;;;;12.25;6.05;;;;;;;16.17;53.29;102310.22;5051987;28;20041;-68
2022/10/09 08:34:01;;;;;;;9.63;6.05;;;;;;;16.35;52.85;102308.94;5052647;28;20099;-68
2022/10/09 08:36:28;;;;;;;9.93;5.88;;;;;;;16.53;52.79;102315.72;5051493;28;20102;-69
2022/10/09 08:38:55;;;;;;;15.05;6.47;;;;;;;16.73;52.59;102305.28;5052497;28;20103;-69
2022/10/09 08:41:50;;;;;;;10.90;5.75;;;;;;;16.90;52.54;102309.47;5052080;28;20785;-69
2022/10/09 08:44:38;;;;;;;9.27;6.20;;;;;;;17.12;52.25;102302.34;5052282;28;20049;-69
2022/10/09 08:47:35;;;;;;;14.88;6.40;;;;;;;17.32;51.93;102295.41;5051977;28;20480;-69
2022/10/09 08:50:42;;;;;;;8.90;5.80;;;;;;;17.48;51.77;102295.09;5052407;28;20056;-68
2022/10/09 08:53:32;;;;;;;9.32;5.28;;;;;;;17.63;51.55;102285.75;5029721;28;20049;-68
2022/10/09 08:56:05;;;;;;;10.80;5.47;;;;;;;17.73;51.35;102286.78;5022999;28;20467;-68
2022/10/09 08:58:33;;;;;;;7.60;5.07;;;;;;;17.82;51.02;102276.16;5040374;28;20045;-69
2022/10/09 09:01:11;;;;;;;8.60;5.70;;;;;;;17.91;51.07;102279.06;5032492;28;20045;-69
2022/10/09 09:03:59;;;;;;;8.15;4.68;;;;;;;18.06;50.83;102285.13;5032463;28;20124;-68
2022/10/09 09:06:46;;;;;;;9.02;4.90;;;;;;;18.19;50.72;102274.13;5039446;28;20098;-69
2022/10/09 09:09:29;;;;;;;6.95;4.78;;;;;;;18.32;50.47;102275.72;5052469;28;20075;-69
2022/10/09 09:12:16;;;;;;;8.40;5.15;;;;;;;18.37;49.92;102268.06;5052184;28;20044;-69
2022/10/09 09:15:00;;;;;;;10.55;5.03;;;;;;;18.43;50.09;102274.84;5051873;28;20045;-69
2022/10/09 09:17:26;;;;;;;12.02;5.22;;;;;;;18.49;49.88;102266.19;5051970;28;20548;-69
2022/10/09 09:20:16;;;;;;;8.98;5.63;;;;;;;18.59;49.48;102266.34;5052414;28;20505;-69
2022/10/09 09:22:47;;;;;;;6.30;5.13;;;;;;;18.67;49.39;102259.31;5052428;28;20106;-69
2022/10/09 09:25:20;;;;;;;10.10;5.68;;;;;;;18.77;49.43;102266.69;5052290;28;20441;-69
2022/10/09 09:27:47;;;;;;;8.63;5.60;;;;;;;18.86;49.43;102263.22;5052373;28;20045;-68
2022/10/09 09:30:27;;;;;;;10.57;4.60;;;;;;;18.95;48.85;102254.25;5051532;28;20041;-69
2022/10/09 09:33:03;;;;;;;13.57;4.88;;;;;;;19.06;49.06;102256.94;5051199;28;20059;-69
2022/10/09 09:35:54;;;;;;;8.23;4.53;;;;;;;19.20;48.58;102242.16;5051519;28;20052;-69
2022/10/09 09:38:20;;;;;;;7.75;4.40;;;;;;;19.35;48.82;102240.88;5050906;28;20045;-69
2022/10/09 09:40:49;;;;;;;10.57;4.30;;;;;;;19.50;48.59;102241.41;5051254;28;20049;-69
2022/10/09 09:43:22;;;;;;;8.77;4.25;;;;;;;19.64;48.08;102232.94;5051023;28;20045;-69
2022/10/09 09:45:54;;;;;;;6.50;4.60;;;;;;;19.78;47.98;102224.41;5050959;28;20040;-70
2022/10/09 09:48:32;;;;;;;11.82;5.15;;;;;;;19.93;47.65;102233.06;5050836;28;20071;-69
2022/10/09 09:51:00;;;;;;;9.52;4.63;;;;;;;20.05;47.86;102228.41;5031021;28;20523;-69
2022/10/09 09:53:56;;;;;;;9.27;4.38;;;;;;;20.14;46.97;102222.16;5031155;28;20069;-69
2022/10/09 09:56:43;;;;;;;13.00;4.50;;;;;;;20.21;46.76;102220.59;5035376;28;20400;-70
2022/10/09 09:59:36;;;;;;;6.88;4.53;;;;;;;20.33;46.67;102215.88;5049990;28;20123;-69
2022/10/09 10:02:13;;;;;;;9.93;4.63;;;;;;;20.41;46.69;102210.63;5049548;28;20033;-69
2022/10/09 10:04:57;;;;;;;6.72;4.80;;;;;;;20.51;46.08;102200.59;5051157;28;20048;-69
2022/10/09 10:07:37;;;;;;;8.85;4.47;;;;;;;20.59;46.08;102198.88;5050198;28;20098;-69
2022/10/09 10:10:14;;;;;;;11.88;5.25;;;;;;;20.67;45.92;102192.72;5049357;28;20049;-69
2022/10/09 10:12:47;;;;;;;12.07;5.45;;;;;;;20.76;45.74;102183.69;5050901;28;20050;-69
2022/10/09 10:15:21;;;;;;;10.00;4.90;;;;;;;20.90;45.75;102188.75;5050767;28;20053;-69
2022/10/09 10:17:53;;;;;;;6.97;4.85;;;;;;;21.02;45.47;102188.59;5050531;28;20132;-69
2022/10/09 10:20:20;;;;;;;8.43;4.97;;;;;;;21.14;45.46;102176.50;5049824;28;20045;-69
2022/10/09 10:22:52;;;;;;;9.68;5.57;;;;;;;21.24;44.92;102183.72;5049485;28;20086;-69
2022/10/09 10:25:23;;;;;;;11.23;4.95;;;;;;;21.34;44.95;102177.38;5050781;28;20049;-69
2022/10/09 10:27:56;;;;;;;9.73;5.13;;;;;;;21.47;44.50;102175.19;5050552;28;20070;-69
2022/10/09 10:30:23;;;;;;;6.00;4.22;;;;;;;21.56;44.45;102172.47;5050952;28;20099;-69
2022/10/09 10:33:08;;;;;;;8.95;4.60;;;;;;;21.64;43.95;102177.19;5050675;28;20041;-69
2022/10/09 10:35:38;;;;;;;9.77;4.45;;;;;;;21.72;43.87;102168.22;5050999;28;20037;-70
2022/10/09 10:38:29;;;;;;;7.15;4.18;;;;;;;21.81;43.32;102161.84;5050736;28;20053;-69
2022/10/09 10:41:02;;;;;;;8.77;5.03;;;;;;;21.94;43.35;102154.16;5051244;28;20449;-70
2022/10/09 10:43:40;;;;;;;7.35;4.25;;;;;;;22.00;43.08;102148.09;5049105;28;20488;-69
2022/10/09 10:46:16;;;;;;;6.53;4.50;;;;;;;22.09;42.95;102149.09;5049461;28;20037;-69
2022/10/09 10:48:45;;;;;;;;;;;;;;;22.18;43.18;102153.63;5050845;28;20053;-69
2022/10/09 10:51:41;;;;;;;13.15;4.03;;;;;;;22.30;42.71;102137.91;5050455;28;19995;-70
2022/10/09 10:54:38;;;;;;;8.35;4.15;;;;;;;22.36;42.55;102129.94;5050891;28;20103;-69
2022/10/09 10:57:11;;;;;;;6.28;3.85;;;;;;;22.46;42.72;102133.47;5050548;28;20045;-69
2022/10/09 10:59:45;;;;;;;9.35;4.43;;;;;;;22.55;42.36;102137.13;5050781;28;20041;-69
2022/10/09 11:02:37;;;;;;;6.80;3.15;;;;;;;22.66;42.11;102128.69;5050071;28;20045;-69
2022/10/09 11:05:24;;;;;;;9.85;3.58;;;;;;;22.81;41.93;102126.28;5050411;28;20053;-69
2022/10/09 11:08:28;;;;;;;8.82;3.42;;;;;;;22.90;41.58;102125.34;5051841;28;20033;-69
2022/10/09 11:11:32;;;;;;;8.05;3.55;;;;;;;23.03;41.30;102113.97;5054069;28;20087;-68
2022/10/09 11:14:03;;;;;;;7.63;3.75;;;;;;;23.14;41.19;102111.00;5054544;28;20060;-70
2022/10/09 11:16:55;;;;;;;6.95;3.17;;;;;;;23.22;40.89;102110.19;5053581;28;20061;-71
2022/10/09 11:19:36;;;;;;;8.63;3.67;;;;;;;23.37;40.87;102101.22;5053050;28;20045;-69
2022/10/09 11:22:26;;;;;;;5.70;2.50;;;;;;;23.47;40.38;102101.09;5053975;28;20120;-70
2022/10/09 11:25:13;;;;;;;6.63;3.28;;;;;;;23.55;40.20;102103.91;5054165;28;20040;-69
2022/10/09 11:27:54;;;;;;;3.92;2.63;;;;;;;23.62;39.92;102091.25;5053327;28;20103;-69
2022/10/09 11:30:21;;;;;;;5.32;2.95;;;;;;;23.69;39.88;102089.59;5054021;28;20049;-69
2022/10/09 11:33:23;;;;;;;4.88;2.35;;;;;;;23.73;39.26;102080.00;5053608;28;20095;-70
2022/10/09 11:36:00;;;;;;;6.78;3.30;;;;;;;23.80;39.09;102084.84;5053830;28;20490;-69
2022/10/09 11:38:35;;;;;;;4.13;2.60;;;;;;;23.79;38.76;102077.66;5052279;28;20450;-69
2022/10/09 11:41:03;;;;;;;4.68;3.10;;;;;;;23.82;38.78;102069.94;5052521;28;20391;-71
2022/10/09 11:43:41;;;;;;;6.32;2.65;;;;;;;23.91;38.60;102063.47;5053650;28;20403;-70
2022/10/09 11:46:24;;;;;;;8.82;3.42;;;;;;;23.99;38.24;102059.88;5053911;28;20049;-69
2022/10/09 11:49:11;;;;;;;6.90;3.00;;;;;;;24.02;38.14;102060.41;5053482;28;20106;-69
2022/10/09 11:52:03;;;;;;;4.22;2.80;;;;;;;24.06;38.14;102052.69;5033784;28;20128;-69